sensor_id;sensor_type;location;lat;lon;timestamp;pressure;altitude;pressure_sealevel;temperature;humidity
10881;BME280;5493;48.884;8.338;2023-05-29T00:02:01;100179.25;;;16.32;100.00
10881;BME280;5493;48.884;8.338;2023-05-29T00:04:28;100173.50;;;16.23;100.00
10881;BME280;5493;48.884;8.338;2023-05-29T00:06:54;100176.38;;;16.12;100.00
10881;BME280;5493;48.884;8.338;2023-05-29T00:09:23;100172.28;;;16.09;100.00
10881;BME280;5493;48.884;8.338;2023-05-29T00:11:50;100173.56;;;16.02;100.00
10881;BME280;5493;48.884;8.338;2023-05-29T00:14:17;100174.88;;;15.94;100.00
10881;BME280;5493;48.884;8.338;2023-05-29T00:16:44;100167.56;;;16.00;100.00
10881;BME280;5493;48.884;8.338;2023-05-29T00:19:12;100165.94;;;15.99;100.00
10881;BME280;5493;48.884;8.338;2023-05-29T00:21:38;100171.38;;;15.99;100.00
10881;BME280;5493;48.884;8.338;2023-05-29T00:24:05;100161.97;;;16.11;100.00
10881;BME280;5493;48.884;8.338;2023-05-29T00:26:33;100163.16;;;16.25;100.00
10881;BME280;5493;48.884;8.338;2023-05-29T00:28:59;100158.03;;;16.29;100.00
10881;BME280;5493;48.884;8.338;2023-05-29T00:31:26;100162.91;;;16.27;100.00
10881;BME280;5493;48.884;8.338;2023-05-29T00:33:53;100158.84;;;16.30;100.00
10881;BME280;5493;48.884;8.338;2023-05-29T00:36:19;100154.06;;;16.47;100.00
10881;BME280;5493;48.884;8.338;2023-05-29T00:38:46;100150.31;;;16.53;100.00
10881;BME280;5493;48.884;8.338;2023-05-29T00:41:14;100146.09;;;16.67;100.00
10881;BME280;5493;48.884;8.338;2023-05-29T00:43:42;100140.84;;;16.60;100.00
10881;BME280;5493;48.884;8.338;2023-05-29T00:46:09;100140.41;;;16.79;100.00
10881;BME280;5493;48.884;8.338;2023-05-29T00:48:36;100150.34;;;16.95;100.00
10881;BME280;5493;48.884;8.338;2023-05-29T00:51:02;100151.53;;;17.14;100.00
10881;BME280;5493;48.884;8.338;2023-05-29T00:53:29;100143.03;;;17.05;100.00
10881;BME280;5493;48.884;8.338;2023-05-29T00:55:57;100145.84;;;17.31;100.00
10881;BME280;5493;48.884;8.338;2023-05-29T00:58:24;100146.47;;;17.53;100.00
10881;BME280;5493;48.884;8.338;2023-05-29T01:00:53;100151.44;;;17.66;100.00
10881;BME280;5493;48.884;8.338;2023-05-29T01:03:20;100146.44;;;17.43;100.00
10881;BME280;5493;48.884;8.338;2023-05-29T01:05:48;100143.31;;;17.86;100.00
10881;BME280;5493;48.884;8.338;2023-05-29T01:08:15;100136.78;;;17.97;100.00
10881;BME280;5493;48.884;8.338;2023-05-29T01:10:41;100132.41;;;18.27;98.34
10881;BME280;5493;48.884;8.338;2023-05-29T01:13:11;100123.38;;;18.41;95.89
10881;BME280;5493;48.884;8.338;2023-05-29T01:15:49;100128.59;;;18.53;94.98
10881;BME280;5493;48.884;8.338;2023-05-29T01:18:32;100137.00;;;18.66;92.94
10881;BME280;5493;48.884;8.338;2023-05-29T01:21:06;100135.38;;;18.76;93.12
10881;BME280;5493;48.884;8.338;2023-05-29T01:23:53;100148.47;;;18.84;97.37
10881;BME280;5493;48.884;8.338;2023-05-29T01:26:49;100145.78;;;18.68;100.00
10881;BME280;5493;48.884;8.338;2023-05-29T01:29:19;100145.78;;;18.53;100.00
10881;BME280;5493;48.884;8.338;2023-05-29T01:31:47;100145.81;;;18.23;100.00
10881;BME280;5493;48.884;8.338;2023-05-29T01:34:14;100145.22;;;18.06;100.00
10881;BME280;5493;48.884;8.338;2023-05-29T01:36:40;100157.47;;;17.78;100.00
10881;BME280;5493;48.884;8.338;2023-05-29T01:39:07;100159.63;;;17.61;100.00
10881;BME280;5493;48.884;8.338;2023-05-29T01:41:35;100156.03;;;17.50;100.00
10881;BME280;5493;48.884;8.338;2023-05-29T01:44:05;100157.91;;;17.40;100.00
10881;BME280;5493;48.884;8.338;2023-05-29T01:46:34;100157.56;;;17.31;100.00
10881;BME280;5493;48.884;8.338;2023-05-29T01:49:01;100155.69;;;17.32;100.00
10881;BME280;5493;48.884;8.338;2023-05-29T01:51:28;100156.97;;;17.14;100.00
10881;BME280;5493;48.884;8.338;2023-05-29T01:53:57;100153.06;;;16.95;100.00
10881;BME280;5493;48.884;8.338;2023-05-29T01:56:24;100157.34;;;16.86;100.00
10881;BME280;5493;48.884;8.338;2023-05-29T01:58:52;100155.19;;;16.88;100.00
10881;BME280;5493;48.884;8.338;2023-05-29T02:01:21;100155.09;;;16.72;100.00
10881;BME280;5493;48.884;8.338;2023-05-29T02:03:47;100155.19;;;16.88;100.00
10881;BME280;5493;48.884;8.338;2023-05-29T02:06:14;100149.88;;;16.66;100.00
10881;BME280;5493;48.884;8.338;2023-05-29T02:08:41;100158.59;;;16.63;100.00
10881;BME280;5493;48.884;8.338;2023-05-29T02:11:07;100161.41;;;16.46;100.00
10881;BME280;5493;48.884;8.338;2023-05-29T02:13:34;100166.41;;;16.22;100.00
10881;BME280;5493;48.884;8.338;2023-05-29T02:16:00;100171.47;;;16.09;100.00
10881;BME280;5493;48.884;8.338;2023-05-29T02:18:28;100168.59;;;15.94;100.00
10881;BME280;5493;48.884;8.338;2023-05-29T02:20:55;100169.38;;;15.89;100.00
10881;BME280;5493;48.884;8.338;2023-05-29T02:23:21;100158.94;;;15.81;100.00
10881;BME280;5493;48.884;8.338;2023-05-29T02:25:48;100162.25;;;15.83;100.00
10881;BME280;5493;48.884;8.338;2023-05-29T02:28:14;100160.78;;;15.49;100.00
10881;BME280;5493;48.884;8.338;2023-05-29T02:30:41;100156.34;;;15.43;100.00
10881;BME280;5493;48.884;8.338;2023-05-29T02:33:07;100152.25;;;15.40;100.00
10881;BME280;5493;48.884;8.338;2023-05-29T02:35:35;100154.50;;;15.26;100.00
10881;BME280;5493;48.884;8.338;2023-05-29T02:38:02;100153.31;;;15.17;100.00
10881;BME280;5493;48.884;8.338;2023-05-29T02:40:28;100157.22;;;15.26;100.00
10881;BME280;5493;48.884;8.338;2023-05-29T02:42:55;100164.19;;;15.17;100.00
10881;BME280;5493;48.884;8.338;2023-05-29T02:45:22;100161.78;;;14.99;100.00
10881;BME280;5493;48.884;8.338;2023-05-29T02:47:48;100173.84;;;15.08;100.00
10881;BME280;5493;48.884;8.338;2023-05-29T02:50:15;100167.44;;;14.98;100.00
10881;BME280;5493;48.884;8.338;2023-05-29T02:52:43;100172.50;;;14.89;100.00
10881;BME280;5493;48.884;8.338;2023-05-29T02:55:09;100168.78;;;14.95;100.00
10881;BME280;5493;48.884;8.338;2023-05-29T02:57:36;100173.00;;;14.86;100.00
10881;BME280;5493;48.884;8.338;2023-05-29T03:00:03;100170.16;;;14.98;100.00
10881;BME280;5493;48.884;8.338;2023-05-29T03:02:31;100170.03;;;14.88;100.00
10881;BME280;5493;48.884;8.338;2023-05-29T03:04:58;100171.16;;;14.92;100.00
10881;BME280;5493;48.884;8.338;2023-05-29T03:07:25;100164.06;;;14.69;100.00
10881;BME280;5493;48.884;8.338;2023-05-29T03:09:53;100169.88;;;14.77;100.00
10881;BME280;5493;48.884;8.338;2023-05-29T03:12:20;100169.88;;;14.77;100.00
10881;BME280;5493;48.884;8.338;2023-05-29T03:14:47;100167.06;;;14.89;100.00
10881;BME280;5493;48.884;8.338;2023-05-29T03:17:13;100173.31;;;14.90;100.00
10881;BME280;5493;48.884;8.338;2023-05-29T03:19:40;100179.25;;;14.87;100.00
10881;BME280;5493;48.884;8.338;2023-05-29T03:22:06;100171.59;;;14.84;100.00
10881;BME280;5493;48.884;8.338;2023-05-29T03:24:33;100169.78;;;14.72;100.00
10881;BME280;5493;48.884;8.338;2023-05-29T03:27:02;100180.41;;;14.74;100.00
10881;BME280;5493;48.884;8.338;2023-05-29T03:29:31;100178.03;;;14.77;100.00
10881;BME280;5493;48.884;8.338;2023-05-29T03:31:57;100180.41;;;14.74;100.00
10881;BME280;5493;48.884;8.338;2023-05-29T03:34:24;100183.09;;;14.91;100.00
10881;BME280;5493;48.884;8.338;2023-05-29T03:36:50;100185.66;;;14.81;100.00
10881;BME280;5493;48.884;8.338;2023-05-29T03:39:17;100185.28;;;14.72;100.00
10881;BME280;5493;48.884;8.338;2023-05-29T03:41:43;100188.16;;;14.65;100.00
10881;BME280;5493;48.884;8.338;2023-05-29T03:44:11;100185.56;;;14.54;100.00
10881;BME280;5493;48.884;8.338;2023-05-29T03:46:38;100182.41;;;14.45;100.00
10881;BME280;5493;48.884;8.338;2023-05-29T03:49:04;100183.22;;;14.62;100.00
10881;BME280;5493;48.884;8.338;2023-05-29T03:51:32;100188.16;;;14.82;100.00
10881;BME280;5493;48.884;8.338;2023-05-29T03:53:58;100182.72;;;14.65;100.00
10881;BME280;5493;48.884;8.338;2023-05-29T03:56:25;100192.94;;;14.75;100.00
10881;BME280;5493;48.884;8.338;2023-05-29T03:58:52;100190.88;;;14.65;100.00
10881;BME280;5493;48.884;8.338;2023-05-29T04:01:19;100182.84;;;14.54;100.00
10881;BME280;5493;48.884;8.338;2023-05-29T04:03:46;100178.91;;;14.83;100.00
10881;BME280;5493;48.884;8.338;2023-05-29T04:06:12;100198.03;;;14.71;100.00
10881;BME280;5493;48.884;8.338;2023-05-29T04:08:39;100203.59;;;14.82;100.00
10881;BME280;5493;48.884;8.338;2023-05-29T04:11:05;100210.84;;;14.76;100.00
10881;BME280;5493;48.884;8.338;2023-05-29T04:13:32;100206.09;;;14.66;100.00
10881;BME280;5493;48.884;8.338;2023-05-29T04:15:58;100211.50;;;14.66;100.00
10881;BME280;5493;48.884;8.338;2023-05-29T04:18:26;100216.44;;;14.86;100.00
10881;BME280;5493;48.884;8.338;2023-05-29T04:20:53;100219.50;;;15.11;100.00
10881;BME280;5493;48.884;8.338;2023-05-29T04:23:19;100217.31;;;15.30;100.00
10881;BME280;5493;48.884;8.338;2023-05-29T04:25:46;100217.66;;;15.77;100.00
10881;BME280;5493;48.884;8.338;2023-05-29T04:28:16;100227.97;;;16.02;100.00
10881;BME280;5493;48.884;8.338;2023-05-29T04:30:42;100224.22;;;15.59;100.00
10881;BME280;5493;48.884;8.338;2023-05-29T04:33:09;100231.47;;;15.75;100.00
10881;BME280;5493;48.884;8.338;2023-05-29T04:35:39;100228.09;;;16.17;100.00
10881;BME280;5493;48.884;8.338;2023-05-29T04:38:08;100233.16;;;16.35;100.00
10881;BME280;5493;48.884;8.338;2023-05-29T04:40:34;100243.66;;;16.53;100.00
10881;BME280;5493;48.884;8.338;2023-05-29T04:43:02;100247.13;;;16.70;100.00
10881;BME280;5493;48.884;8.338;2023-05-29T04:45:30;100244.16;;;17.19;100.00
10881;BME280;5493;48.884;8.338;2023-05-29T04:47:56;100249.50;;;17.51;100.00
10881;BME280;5493;48.884;8.338;2023-05-29T04:50:23;100262.06;;;17.52;100.00
10881;BME280;5493;48.884;8.338;2023-05-29T04:52:51;100258.59;;;17.61;100.00
10881;BME280;5493;48.884;8.338;2023-05-29T04:55:17;100268.53;;;17.41;100.00
10881;BME280;5493;48.884;8.338;2023-05-29T04:57:44;100274.50;;;17.85;100.00
10881;BME280;5493;48.884;8.338;2023-05-29T05:00:11;100275.13;;;18.17;100.00
10881;BME280;5493;48.884;8.338;2023-05-29T05:02:40;100270.53;;;18.23;100.00
10881;BME280;5493;48.884;8.338;2023-05-29T05:05:07;100276.88;;;18.74;100.00
10881;BME280;5493;48.884;8.338;2023-05-29T05:07:34;100278.78;;;18.58;100.00
10881;BME280;5493;48.884;8.338;2023-05-29T05:10:02;100285.63;;;18.81;100.00
10881;BME280;5493;48.884;8.338;2023-05-29T05:12:28;100283.69;;;18.61;100.00
10881;BME280;5493;48.884;8.338;2023-05-29T05:14:55;100284.25;;;18.98;100.00
10881;BME280;5493;48.884;8.338;2023-05-29T05:17:22;100285.84;;;19.14;100.00
10881;BME280;5493;48.884;8.338;2023-05-29T05:19:48;100286.34;;;19.32;100.00
10881;BME280;5493;48.884;8.338;2023-05-29T05:22:15;100288.69;;;19.84;100.00
10881;BME280;5493;48.884;8.338;2023-05-29T05:24:41;100287.53;;;19.90;100.00
10881;BME280;5493;48.884;8.338;2023-05-29T05:27:09;100287.88;;;20.37;100.00
10881;BME280;5493;48.884;8.338;2023-05-29T05:29:36;100295.44;;;20.84;100.00
10881;BME280;5493;48.884;8.338;2023-05-29T05:32:02;100287.44;;;20.93;99.68
10881;BME280;5493;48.884;8.338;2023-05-29T05:34:29;100283.28;;;21.29;98.61
10881;BME280;5493;48.884;8.338;2023-05-29T05:36:56;100290.94;;;21.32;96.34
10881;BME280;5493;48.884;8.338;2023-05-29T05:39:22;100289.97;;;21.94;95.28
10881;BME280;5493;48.884;8.338;2023-05-29T05:41:48;100283.50;;;22.04;90.61
10881;BME280;5493;48.884;8.338;2023-05-29T05:44:16;100285.16;;;22.42;90.56
10881;BME280;5493;48.884;8.338;2023-05-29T05:46:43;100296.00;;;22.34;92.56
10881;BME280;5493;48.884;8.338;2023-05-29T05:49:10;100305.00;;;21.97;89.29
10881;BME280;5493;48.884;8.338;2023-05-29T05:51:36;100309.63;;;22.01;90.67
10881;BME280;5493;48.884;8.338;2023-05-29T05:54:03;100308.34;;;21.94;89.94
10881;BME280;5493;48.884;8.338;2023-05-29T05:56:29;100308.81;;;22.01;90.49
10881;BME280;5493;48.884;8.338;2023-05-29T05:58:56;100317.38;;;21.47;95.49
10881;BME280;5493;48.884;8.338;2023-05-29T06:01:24;100311.59;;;21.96;91.06
10881;BME280;5493;48.884;8.338;2023-05-29T06:03:50;100311.47;;;21.82;89.87
10881;BME280;5493;48.884;8.338;2023-05-29T06:06:17;100310.53;;;22.16;87.67
10881;BME280;5493;48.884;8.338;2023-05-29T06:08:44;100320.44;;;21.93;88.56
10881;BME280;5493;48.884;8.338;2023-05-29T06:11:10;100314.06;;;23.23;81.74
10881;BME280;5493;48.884;8.338;2023-05-29T06:13:37;100320.94;;;22.37;81.34
10881;BME280;5493;48.884;8.338;2023-05-29T06:16:04;100326.16;;;22.39;81.58
10881;BME280;5493;48.884;8.338;2023-05-29T06:18:32;100331.06;;;22.42;80.78
10881;BME280;5493;48.884;8.338;2023-05-29T06:20:58;100329.56;;;23.19;80.16
10881;BME280;5493;48.884;8.338;2023-05-29T06:23:26;100323.97;;;22.36;81.01
10881;BME280;5493;48.884;8.338;2023-05-29T06:25:52;100334.09;;;22.96;78.50
10881;BME280;5493;48.884;8.338;2023-05-29T06:28:19;100338.19;;;22.80;79.24
10881;BME280;5493;48.884;8.338;2023-05-29T06:30:45;100346.88;;;23.52;75.61
10881;BME280;5493;48.884;8.338;2023-05-29T06:33:12;100330.94;;;23.35;78.52
10881;BME280;5493;48.884;8.338;2023-05-29T06:35:40;100336.91;;;23.24;75.17
10881;BME280;5493;48.884;8.338;2023-05-29T06:38:06;100332.22;;;23.24;73.44
10881;BME280;5493;48.884;8.338;2023-05-29T06:40:33;100338.72;;;23.15;75.01
10881;BME280;5493;48.884;8.338;2023-05-29T06:42:59;100338.53;;;23.57;72.00
10881;BME280;5493;48.884;8.338;2023-05-29T06:45:26;100336.47;;;22.84;78.25
10881;BME280;5493;48.884;8.338;2023-05-29T06:47:52;100335.66;;;23.48;76.39
10881;BME280;5493;48.884;8.338;2023-05-29T06:50:20;100335.59;;;23.35;72.59
10881;BME280;5493;48.884;8.338;2023-05-29T06:52:48;100339.16;;;24.09;72.15
10881;BME280;5493;48.884;8.338;2023-05-29T06:55:14;100343.34;;;23.79;68.95
10881;BME280;5493;48.884;8.338;2023-05-29T06:57:41;100338.72;;;23.47;65.11
10881;BME280;5493;48.884;8.338;2023-05-29T07:00:10;100341.94;;;23.35;68.57
10881;BME280;5493;48.884;8.338;2023-05-29T07:02:36;100335.38;;;23.18;67.64
10881;BME280;5493;48.884;8.338;2023-05-29T07:05:04;100339.22;;;23.49;64.60
10881;BME280;5493;48.884;8.338;2023-05-29T07:07:31;100344.56;;;23.73;65.68
10881;BME280;5493;48.884;8.338;2023-05-29T07:09:59;100342.00;;;24.17;62.47
10881;BME280;5493;48.884;8.338;2023-05-29T07:12:26;100340.06;;;23.77;64.42
10881;BME280;5493;48.884;8.338;2023-05-29T07:14:53;100339.25;;;24.03;64.47
10881;BME280;5493;48.884;8.338;2023-05-29T07:17:19;100346.28;;;24.73;65.13
10881;BME280;5493;48.884;8.338;2023-05-29T07:19:46;100339.41;;;24.48;63.00
10881;BME280;5493;48.884;8.338;2023-05-29T07:22:14;100344.88;;;24.97;59.17
10881;BME280;5493;48.884;8.338;2023-05-29T07:24:41;100341.94;;;25.16;59.77
10881;BME280;5493;48.884;8.338;2023-05-29T07:27:08;100348.91;;;25.14;60.44
10881;BME280;5493;48.884;8.338;2023-05-29T07:29:35;100343.09;;;25.24;58.60
10881;BME280;5493;48.884;8.338;2023-05-29T07:32:01;100348.16;;;25.53;56.13
10881;BME280;5493;48.884;8.338;2023-05-29T07:34:28;100343.72;;;25.43;56.58
10881;BME280;5493;48.884;8.338;2023-05-29T07:36:59;100345.53;;;25.78;55.99
10881;BME280;5493;48.884;8.338;2023-05-29T07:39:26;100348.25;;;25.47;54.97
10881;BME280;5493;48.884;8.338;2023-05-29T07:41:52;100351.53;;;25.50;54.81
10881;BME280;5493;48.884;8.338;2023-05-29T07:44:20;100351.41;;;25.55;55.27
10881;BME280;5493;48.884;8.338;2023-05-29T07:46:47;100352.69;;;25.88;55.38
10881;BME280;5493;48.884;8.338;2023-05-29T07:49:14;100341.44;;;25.45;54.83
10881;BME280;5493;48.884;8.338;2023-05-29T07:51:40;100347.75;;;25.15;57.08
10881;BME280;5493;48.884;8.338;2023-05-29T07:54:07;100341.78;;;25.83;56.31
10881;BME280;5493;48.884;8.338;2023-05-29T07:56:33;100343.75;;;25.82;54.61
10881;BME280;5493;48.884;8.338;2023-05-29T07:59:00;100339.38;;;26.29;53.82
10881;BME280;5493;48.884;8.338;2023-05-29T08:01:28;100352.88;;;26.74;50.96
10881;BME280;5493;48.884;8.338;2023-05-29T08:03:54;100343.63;;;26.44;51.49
10881;BME280;5493;48.884;8.338;2023-05-29T08:06:21;100352.03;;;26.22;53.15
10881;BME280;5493;48.884;8.338;2023-05-29T08:08:47;100350.47;;;26.55;52.15
10881;BME280;5493;48.884;8.338;2023-05-29T08:11:14;100348.34;;;26.78;51.95
10881;BME280;5493;48.884;8.338;2023-05-29T08:13:40;100343.47;;;26.58;51.62
10881;BME280;5493;48.884;8.338;2023-05-29T08:16:07;100346.41;;;27.13;48.27
10881;BME280;5493;48.884;8.338;2023-05-29T08:18:35;100339.72;;;26.71;52.25
10881;BME280;5493;48.884;8.338;2023-05-29T08:21:01;100352.72;;;26.70;51.22
10881;BME280;5493;48.884;8.338;2023-05-29T08:23:28;100347.88;;;26.84;52.10
10881;BME280;5493;48.884;8.338;2023-05-29T08:25:56;100349.47;;;26.42;51.10
10881;BME280;5493;48.884;8.338;2023-05-29T08:28:23;100343.06;;;27.36;49.87
10881;BME280;5493;48.884;8.338;2023-05-29T08:30:51;100340.00;;;27.21;48.50
10881;BME280;5493;48.884;8.338;2023-05-29T08:33:18;100340.22;;;28.00;48.17
10881;BME280;5493;48.884;8.338;2023-05-29T08:35:46;100347.22;;;26.79;49.95
10881;BME280;5493;48.884;8.338;2023-05-29T08:38:12;100339.19;;;27.29;51.28
10881;BME280;5493;48.884;8.338;2023-05-29T08:40:39;100338.28;;;28.01;49.17
10881;BME280;5493;48.884;8.338;2023-05-29T08:43:10;100335.53;;;28.51;46.83
10881;BME280;5493;48.884;8.338;2023-05-29T08:45:43;100342.44;;;28.45;45.25
10881;BME280;5493;48.884;8.338;2023-05-29T08:48:11;100345.34;;;28.27;47.11
10881;BME280;5493;48.884;8.338;2023-05-29T08:50:41;100334.34;;;28.10;45.31
10881;BME280;5493;48.884;8.338;2023-05-29T08:53:11;100348.03;;;28.07;46.48
10881;BME280;5493;48.884;8.338;2023-05-29T08:55:37;100347.53;;;28.84;43.49
10881;BME280;5493;48.884;8.338;2023-05-29T08:58:04;100340.47;;;28.45;45.48
10881;BME280;5493;48.884;8.338;2023-05-29T09:00:31;100343.22;;;28.74;46.48
10881;BME280;5493;48.884;8.338;2023-05-29T09:02:58;100349.38;;;28.30;44.92
10881;BME280;5493;48.884;8.338;2023-05-29T09:05:26;100348.53;;;27.71;46.96
10881;BME280;5493;48.884;8.338;2023-05-29T09:07:52;100350.66;;;27.65;48.34
10881;BME280;5493;48.884;8.338;2023-05-29T09:10:20;100345.78;;;28.00;46.92
10881;BME280;5493;48.884;8.338;2023-05-29T09:12:48;100344.41;;;28.44;45.58
10881;BME280;5493;48.884;8.338;2023-05-29T09:15:19;100351.44;;;28.62;44.57
10881;BME280;5493;48.884;8.338;2023-05-29T09:17:50;100351.75;;;28.90;44.92
10881;BME280;5493;48.884;8.338;2023-05-29T09:20:18;100352.75;;;28.86;43.27
10881;BME280;5493;48.884;8.338;2023-05-29T09:22:52;100356.38;;;28.36;45.24
10881;BME280;5493;48.884;8.338;2023-05-29T09:25:22;100357.53;;;27.97;45.75
10881;BME280;5493;48.884;8.338;2023-05-29T09:27:51;100358.06;;;28.78;44.94
10881;BME280;5493;48.884;8.338;2023-05-29T09:30:31;100360.75;;;28.37;44.95
10881;BME280;5493;48.884;8.338;2023-05-29T09:32:59;100357.22;;;28.78;45.32
10881;BME280;5493;48.884;8.338;2023-05-29T09:35:32;100360.63;;;28.54;46.24
10881;BME280;5493;48.884;8.338;2023-05-29T09:37:59;100354.94;;;28.51;46.57
10881;BME280;5493;48.884;8.338;2023-05-29T09:40:29;100365.47;;;28.16;45.67
10881;BME280;5493;48.884;8.338;2023-05-29T09:43:02;100365.38;;;28.83;43.59
10881;BME280;5493;48.884;8.338;2023-05-29T09:45:30;100365.50;;;29.52;41.72
10881;BME280;5493;48.884;8.338;2023-05-29T09:47:56;100353.66;;;29.10;43.60
10881;BME280;5493;48.884;8.338;2023-05-29T09:50:25;100354.13;;;29.12;43.92
10881;BME280;5493;48.884;8.338;2023-05-29T09:52:52;100357.25;;;29.31;43.60
10881;BME280;5493;48.884;8.338;2023-05-29T09:55:20;100348.81;;;29.52;43.14
10881;BME280;5493;48.884;8.338;2023-05-29T09:57:48;100343.38;;;29.44;42.73
10881;BME280;5493;48.884;8.338;2023-05-29T10:00:15;100349.38;;;29.34;42.26
10881;BME280;5493;48.884;8.338;2023-05-29T10:02:41;100348.94;;;28.49;44.85
10881;BME280;5493;48.884;8.338;2023-05-29T10:05:09;100339.38;;;29.65;42.57
10881;BME280;5493;48.884;8.338;2023-05-29T10:07:37;100336.34;;;29.70;43.08
10881;BME280;5493;48.884;8.338;2023-05-29T10:10:05;100342.56;;;29.10;44.15
10881;BME280;5493;48.884;8.338;2023-05-29T10:12:35;100335.69;;;29.73;42.26
10881;BME280;5493;48.884;8.338;2023-05-29T10:15:07;100330.13;;;29.73;40.80
10881;BME280;5493;48.884;8.338;2023-05-29T10:17:38;100327.78;;;29.18;43.30
10881;BME280;5493;48.884;8.338;2023-05-29T10:20:08;100329.66;;;30.08;41.24
10881;BME280;5493;48.884;8.338;2023-05-29T10:22:41;100328.31;;;29.33;41.84
10881;BME280;5493;48.884;8.338;2023-05-29T10:25:13;100328.34;;;29.81;41.89
10881;BME280;5493;48.884;8.338;2023-05-29T10:27:39;100316.88;;;30.43;41.84
10881;BME280;5493;48.884;8.338;2023-05-29T10:30:13;100322.06;;;29.36;41.74
10881;BME280;5493;48.884;8.338;2023-05-29T10:32:53;100318.31;;;30.13;42.16
10881;BME280;5493;48.884;8.338;2023-05-29T10:35:25;100319.41;;;29.39;39.64
10881;BME280;5493;48.884;8.338;2023-05-29T10:37:59;100319.94;;;30.78;37.68
10881;BME280;5493;48.884;8.338;2023-05-29T10:40:28;100329.00;;;29.99;39.43
10881;BME280;5493;48.884;8.338;2023-05-29T10:42:55;100315.53;;;30.13;40.44
10881;BME280;5493;48.884;8.338;2023-05-29T10:45:55;100326.66;;;30.13;39.49
10881;BME280;5493;48.884;8.338;2023-05-29T10:48:41;100325.25;;;29.83;40.12
10881;BME280;5493;48.884;8.338;2023-05-29T10:51:10;100312.03;;;29.55;39.27
10881;BME280;5493;48.884;8.338;2023-05-29T10:53:50;100312.06;;;29.22;40.80
10881;BME280;5493;48.884;8.338;2023-05-29T10:56:21;100307.50;;;29.63;42.20
10881;BME280;5493;48.884;8.338;2023-05-29T10:58:52;100313.78;;;29.96;39.96
10881;BME280;5493;48.884;8.338;2023-05-29T11:01:22;100308.34;;;29.75;38.93
10881;BME280;5493;48.884;8.338;2023-05-29T11:03:50;100300.00;;;30.00;39.21
10881;BME280;5493;48.884;8.338;2023-05-29T11:06:18;100312.25;;;29.50;39.17
10881;BME280;5493;48.884;8.338;2023-05-29T11:08:46;100306.00;;;30.14;37.82
10881;BME280;5493;48.884;8.338;2023-05-29T11:11:14;100299.59;;;30.50;37.42
10881;BME280;5493;48.884;8.338;2023-05-29T11:13:41;100305.22;;;30.01;37.16
10881;BME280;5493;48.884;8.338;2023-05-29T11:16:20;100307.53;;;30.23;37.94
10881;BME280;5493;48.884;8.338;2023-05-29T11:19:06;100296.88;;;29.77;39.31
10881;BME280;5493;48.884;8.338;2023-05-29T11:21:34;100305.81;;;29.95;37.66
10881;BME280;5493;48.884;8.338;2023-05-29T11:24:05;100307.19;;;30.13;38.31
10881;BME280;5493;48.884;8.338;2023-05-29T11:26:32;100300.88;;;30.40;37.41
10881;BME280;5493;48.884;8.338;2023-05-29T11:29:00;100298.84;;;30.65;38.67
10881;BME280;5493;48.884;8.338;2023-05-29T11:31:28;100308.22;;;29.96;39.04
10881;BME280;5493;48.884;8.338;2023-05-29T11:33:59;100302.69;;;30.08;38.54
10881;BME280;5493;48.884;8.338;2023-05-29T11:36:28;100294.81;;;30.62;37.92
10881;BME280;5493;48.884;8.338;2023-05-29T11:38:56;100299.75;;;30.69;35.85
10881;BME280;5493;48.884;8.338;2023-05-29T11:41:22;100298.63;;;30.06;36.00
10881;BME280;5493;48.884;8.338;2023-05-29T11:43:59;100294.81;;;30.62;35.69
10881;BME280;5493;48.884;8.338;2023-05-29T11:46:27;100294.44;;;30.00;35.40
10881;BME280;5493;48.884;8.338;2023-05-29T11:48:56;100302.50;;;29.32;35.79
10881;BME280;5493;48.884;8.338;2023-05-29T11:51:23;100278.44;;;29.36;35.75
10881;BME280;5493;48.884;8.338;2023-05-29T11:53:51;100286.22;;;29.79;35.90
10881;BME280;5493;48.884;8.338;2023-05-29T11:56:23;100285.66;;;29.86;36.26
10881;BME280;5493;48.884;8.338;2023-05-29T11:58:50;100290.47;;;30.25;34.84
10881;BME280;5493;48.884;8.338;2023-05-29T12:01:20;100292.59;;;30.04;35.12
10881;BME280;5493;48.884;8.338;2023-05-29T12:03:49;100288.75;;;29.48;35.10
10881;BME280;5493;48.884;8.338;2023-05-29T12:06:15;100287.03;;;30.04;34.02
10881;BME280;5493;48.884;8.338;2023-05-29T12:08:42;100297.44;;;30.19;34.37
10881;BME280;5493;48.884;8.338;2023-05-29T12:11:10;100297.22;;;29.75;33.18
10881;BME280;5493;48.884;8.338;2023-05-29T12:13:37;100295.25;;;29.88;35.09
10881;BME280;5493;48.884;8.338;2023-05-29T12:16:04;100283.69;;;29.17;34.12
10881;BME280;5493;48.884;8.338;2023-05-29T12:18:31;100282.28;;;29.92;34.27
10881;BME280;5493;48.884;8.338;2023-05-29T12:21:00;100290.44;;;29.28;34.42
10881;BME280;5493;48.884;8.338;2023-05-29T12:23:27;100294.06;;;29.53;33.85
10881;BME280;5493;48.884;8.338;2023-05-29T12:25:54;100290.03;;;29.17;33.92
10881;BME280;5493;48.884;8.338;2023-05-29T12:28:22;100283.53;;;29.70;33.38
10881;BME280;5493;48.884;8.338;2023-05-29T12:30:49;100301.81;;;29.35;33.75
10881;BME280;5493;48.884;8.338;2023-05-29T12:33:27;100297.94;;;29.15;34.28
10881;BME280;5493;48.884;8.338;2023-05-29T12:35:54;100294.19;;;29.68;34.15
10881;BME280;5493;48.884;8.338;2023-05-29T12:38:22;100297.69;;;29.65;34.26
10881;BME280;5493;48.884;8.338;2023-05-29T12:40:49;100301.34;;;29.45;33.66
10881;BME280;5493;48.884;8.338;2023-05-29T12:43:16;100302.28;;;29.49;33.73
10881;BME280;5493;48.884;8.338;2023-05-29T12:45:44;100300.94;;;29.22;34.88
10881;BME280;5493;48.884;8.338;2023-05-29T12:48:11;100295.59;;;29.74;34.61
10881;BME280;5493;48.884;8.338;2023-05-29T12:50:38;100296.50;;;29.30;32.69
10881;BME280;5493;48.884;8.338;2023-05-29T12:53:06;100289.03;;;29.22;32.53
10881;BME280;5493;48.884;8.338;2023-05-29T12:55:34;100282.28;;;29.11;32.29
10881;BME280;5493;48.884;8.338;2023-05-29T12:58:02;100286.03;;;30.36;31.45
10881;BME280;5493;48.884;8.338;2023-05-29T13:00:29;100293.16;;;29.61;31.72